Time;durP1;ratioP1;P1;durP2;ratioP2;P2;SDS_P1;SDS_P2;PMS_P1;PMS_P2;Temp;Humidity;BMP_temperature;BMP_pressure;BME280_temperature;BME280_humidity;BME280_pressure;Samples;Min_cycle;Max_cycle;Signal;HPM_P1;HPM_P2
2022/02/26 00:01:14;;;;;;;;;5.00;4.25;;;;;17.25;36.24;102885.47;5098413;27;50995;-53
2022/02/26 00:03:39;;;;;;;;;6.25;6.00;;;;;17.24;35.84;102890.09;5098479;27;50970;-50
2022/02/26 00:06:05;;;;;;;;;5.25;5.00;;;;;17.24;35.74;102892.84;5098899;27;51052;-47
2022/02/26 00:08:30;;;;;;;;;6.00;5.25;;;;;17.24;35.87;102891.97;5098577;27;51637;-54
2022/02/26 00:10:55;;;;;;;;;8.75;8.00;;;;;17.24;35.71;102889.25;5098699;27;51055;-51
2022/02/26 00:13:21;;;;;;;;;10.75;5.75;;;;;17.24;36.17;102883.75;5098809;27;51190;-53
2022/02/26 00:15:46;;;;;;;;;6.00;5.00;;;;;17.23;35.78;102888.38;5098708;27;51055;-48
2022/02/26 00:18:12;;;;;;;;;4.25;4.00;;;;;17.24;36.17;102881.03;5098113;27;52200;-48
2022/02/26 00:20:37;;;;;;;;;6.25;5.50;;;;;17.23;35.99;102887.50;5097727;27;51027;-52
2022/02/26 00:23:03;;;;;;;;;7.25;5.25;;;;;17.23;36.10;102893.00;5098509;27;51067;-53
2022/02/26 00:25:29;;;;;;;;;8.25;5.00;;;;;17.22;36.01;102894.00;5098256;27;51195;-51
2022/02/26 00:27:54;;;;;;;;;9.50;5.75;;;;;17.22;35.97;102899.50;5097592;27;52065;-52
2022/02/26 00:30:20;;;;;;;;;5.00;5.00;;;;;17.21;36.04;102892.28;5081905;27;51061;-48
2022/02/26 00:32:45;;;;;;;;;4.75;4.75;;;;;17.21;36.04;102887.66;5077945;27;51097;-50
2022/02/26 00:35:11;;;;;;;;;4.50;4.00;;;;;17.21;36.24;102889.56;5076883;27;51328;-50
2022/02/26 00:37:36;;;;;;;;;5.75;5.75;;;;;17.22;35.90;102902.22;5077290;27;51772;-52
2022/02/26 00:40:03;;;;;;;;;6.50;6.50;;;;;17.22;36.06;102900.34;5078017;27;51513;-52
2022/02/26 00:42:29;;;;;;;;;8.00;5.75;;;;;17.21;35.79;102895.03;5077852;27;51229;-51
2022/02/26 00:44:54;;;;;;;;;7.00;4.75;;;;;17.20;36.06;102896.03;5077963;27;50994;-52
2022/02/26 00:47:19;;;;;;;;;5.50;5.50;;;;;17.20;36.26;102893.31;5077311;27;51713;-53
2022/02/26 00:49:48;;;;;;;;;6.75;6.00;;;;;17.20;36.14;102883.22;5076885;27;51127;-52
2022/02/26 00:52:34;;;;;;;;;9.25;6.00;;;;;17.20;35.97;102885.09;5077270;27;51238;-52
2022/02/26 00:55:01;;;;;;;;;8.50;5.75;;;;;17.19;36.06;102892.41;5077471;27;51241;-51
2022/02/26 00:57:27;;;;;;;;;6.00;5.25;;;;;17.19;36.26;102897.03;5077556;27;52353;-51
2022/02/26 00:59:53;;;;;;;;;5.00;3.75;;;;;17.19;36.27;102892.41;5077448;27;51028;-51
2022/02/26 01:02:19;;;;;;;;;7.00;7.00;;;;;17.19;35.96;102897.88;5077412;27;51230;-52
2022/02/26 01:04:46;;;;;;;;;4.50;4.50;;;;;17.19;35.84;102903.38;5077425;27;51286;-53
2022/02/26 01:07:11;;;;;;;;;6.00;5.25;;;;;17.19;35.94;102895.16;5077161;28;51296;-52
2022/02/26 01:09:37;;;;;;;;;5.00;3.25;;;;;17.19;36.10;102900.63;5076294;28;51035;-53
2022/02/26 01:12:05;;;;;;;;;6.00;4.75;;;;;17.19;36.06;102902.50;5077354;27;50999;-51
2022/02/26 01:14:33;;;;;;;;;7.75;5.00;;;;;17.19;36.11;102916.19;5077781;28;51040;-51
2022/02/26 01:16:59;;;;;;;;;4.25;3.00;;;;;17.18;36.13;102912.59;5077258;27;52747;-53
2022/02/26 01:19:24;;;;;;;;;5.50;4.50;;;;;17.18;35.96;102914.47;5077150;27;51272;-51
2022/02/26 01:21:49;;;;;;;;;4.00;3.25;;;;;17.18;36.26;102903.53;5077385;27;51017;-50
2022/02/26 01:24:15;;;;;;;;;7.00;4.50;;;;;17.18;36.23;102911.75;5077372;27;51109;-51
2022/02/26 01:26:41;;;;;;;;;5.00;5.00;;;;;17.18;35.97;102909.00;5076695;27;51915;-52
2022/02/26 01:29:06;;;;;;;;;6.00;6.00;;;;;17.17;35.74;102912.75;5082917;27;51051;-53
2022/02/26 01:31:33;;;;;;;;;7.50;6.75;;;;;17.17;35.87;102913.63;5097543;27;51210;-51
2022/02/26 01:33:59;;;;;;;;;7.50;4.50;;;;;17.17;36.06;102915.50;5097739;27;51148;-52
2022/02/26 01:36:26;;;;;;;;;6.25;4.00;;;;;17.16;36.24;102908.28;5096994;27;51016;-48
2022/02/26 01:38:52;;;;;;;;;4.75;4.75;;;;;17.16;36.06;102920.09;5097612;27;51703;-53
2022/02/26 01:41:17;;;;;;;;;6.75;6.00;;;;;17.17;36.14;102926.44;5097395;27;51178;-52
2022/02/26 01:43:43;;;;;;;;;5.00;5.00;;;;;17.16;36.08;102928.31;5097637;27;51028;-52
2022/02/26 01:46:10;;;;;;;;;5.00;5.00;;;;;17.16;36.11;102922.84;5097016;27;51127;-51
2022/02/26 01:48:36;;;;;;;;;6.25;4.75;;;;;17.16;36.17;102919.25;5096982;27;50954;-49
2022/02/26 01:51:03;;;;;;;;;4.25;4.00;;;;;17.16;36.05;102914.63;5097255;27;51442;-53
2022/02/26 01:53:28;;;;;;;;;7.25;4.50;;;;;17.16;36.08;102902.81;5097597;27;51245;-52
2022/02/26 01:55:54;;;;;;;;;4.50;4.50;;;;;17.15;36.32;102917.53;5096851;27;50978;-53
2022/02/26 01:58:20;;;;;;;;;7.25;5.50;;;;;17.15;36.30;102921.13;5097078;27;51391;-51
2022/02/26 02:00:46;;;;;;;;;7.25;5.25;;;;;17.15;35.95;102917.53;5097336;27;51324;-53
2022/02/26 02:03:11;;;;;;;;;6.50;5.00;;;;;17.15;36.53;102923.00;5097156;27;51357;-50
2022/02/26 02:05:37;;;;;;;;;5.25;5.00;;;;;17.14;36.26;102916.66;5096993;27;52109;-53
2022/02/26 02:08:02;;;;;;;;;6.75;6.75;;;;;17.14;36.08;102907.59;5097304;27;51142;-52
2022/02/26 02:10:28;;;;;;;;;5.00;5.00;;;;;17.14;36.30;102911.19;5097002;27;51060;-53
2022/02/26 02:12:53;;;;;;;;;9.25;5.00;;;;;17.14;35.93;102924.88;5097109;27;51041;-50
2022/02/26 02:15:37;;;;;;;;;5.00;5.00;;;;;17.14;36.09;102924.03;5096770;27;52072;-53
2022/02/26 02:18:04;;;;;;;;;6.25;6.25;;;;;17.13;36.30;102920.41;5097114;27;51139;-53
2022/02/26 02:20:29;;;;;;;;;6.00;5.50;;;;;17.13;36.00;102920.41;5096637;27;51201;-51
2022/02/26 02:22:55;;;;;;;;;7.00;5.50;;;;;17.12;36.09;102915.97;5097059;27;51042;-51
2022/02/26 02:25:26;;;;;;;;;8.00;5.75;;;;;17.12;36.09;102918.69;5096627;27;51698;-50
2022/02/26 02:27:51;;;;;;;;;7.75;5.50;;;;;17.11;36.24;102916.13;5096958;27;51028;-51
2022/02/26 02:30:17;;;;;;;;;7.75;5.00;;;;;17.12;36.15;102915.09;5081203;27;51514;-52
2022/02/26 02:32:42;;;;;;;;;7.25;4.25;;;;;17.12;36.29;102915.09;5076333;27;51112;-50
2022/02/26 02:35:08;;;;;;;;;4.25;4.00;;;;;17.12;36.14;102910.47;5075775;27;51058;-52
2022/02/26 02:37:33;;;;;;;;;5.00;4.25;;;;;17.11;36.22;102897.81;5075702;27;51131;-49
2022/02/26 02:39:59;;;;;;;;;8.25;6.50;;;;;17.11;36.19;102900.53;5076256;27;51078;-48
2022/02/26 02:42:24;;;;;;;;;9.00;6.00;;;;;17.11;36.16;102903.28;5076646;27;51112;-50
2022/02/26 02:44:49;;;;;;;;;9.25;7.50;;;;;17.10;36.06;102907.03;5075883;27;51050;-53
2022/02/26 02:47:15;;;;;;;;;6.75;6.75;;;;;17.10;36.28;102898.81;5076119;27;51037;-53
2022/02/26 02:49:40;;;;;;;;;4.25;3.50;;;;;17.11;36.10;102905.16;5075963;27;51207;-47
2022/02/26 02:52:06;;;;;;;;;6.25;5.25;;;;;17.10;35.95;102895.22;5076326;27;50916;-50
2022/02/26 02:54:31;;;;;;;;;9.25;8.00;;;;;17.10;36.41;102897.97;5075548;27;51808;-52
2022/02/26 02:56:56;;;;;;;;;5.75;5.00;;;;;17.09;36.40;102905.31;5075126;27;51076;-51
2022/02/26 02:59:22;;;;;;;;;6.00;4.75;;;;;17.09;35.95;102899.84;5076092;27;50999;-51
2022/02/26 03:01:47;;;;;;;;;6.75;5.00;;;;;17.09;35.94;102897.09;5075903;27;51099;-48
2022/02/26 03:04:12;;;;;;;;;5.00;4.00;;;;;17.10;36.14;102895.22;5075429;27;51789;-50
2022/02/26 03:06:38;;;;;;;;;6.00;5.25;;;;;17.09;36.25;102896.22;5074333;28;51112;-49
2022/02/26 03:09:03;;;;;;;;;6.00;5.50;;;;;17.09;36.36;102885.25;5076066;27;51139;-48
2022/02/26 03:11:29;;;;;;;;;7.00;5.75;;;;;17.08;36.04;102880.78;5075903;28;51136;-52
2022/02/26 03:13:54;;;;;;;;;7.25;7.25;;;;;17.08;36.13;102876.19;5075186;27;51721;-49
2022/02/26 03:16:20;;;;;;;;;4.00;4.00;;;;;17.08;36.23;102884.41;5075714;27;51139;-50
2022/02/26 03:18:45;;;;;;;;;5.50;4.50;;;;;17.07;36.53;102885.41;5075470;27;51291;-51
2022/02/26 03:21:10;;;;;;;;;8.25;8.25;;;;;17.07;36.13;102879.94;5075588;28;51364;-50
2022/02/26 03:23:36;;;;;;;;;5.75;5.75;;;;;17.07;36.29;102893.63;5075410;28;52669;-49
2022/02/26 03:26:02;;;;;;;;;6.25;5.50;;;;;17.07;36.12;102879.06;5075058;27;51056;-50
2022/02/26 03:28:27;;;;;;;;;4.00;4.00;;;;;17.07;36.20;102884.53;5076061;27;51209;-51
2022/02/26 03:30:53;;;;;;;;;7.00;4.25;;;;;17.07;36.37;102887.28;5095764;27;51377;-49
2022/02/26 03:33:18;;;;;;;;;10.50;7.75;;;;;17.07;36.28;102887.28;5095459;27;52365;-49
2022/02/26 03:35:43;;;;;;;;;6.00;5.00;;;;;17.07;36.21;102890.03;5095667;27;51110;-50
2022/02/26 03:38:09;;;;;;;;;5.75;5.00;;;;;17.06;36.10;102885.56;5095692;27;51151;-49
2022/02/26 03:40:35;;;;;;;;;5.00;5.00;;;;;17.06;36.13;102882.81;5095655;27;51274;-52
2022/02/26 03:43:02;;;;;;;;;4.50;4.50;;;;;17.07;35.93;102879.06;5095194;27;51887;-53
2022/02/26 03:45:27;;;;;;;;;4.00;4.00;;;;;17.06;36.49;102883.69;5095767;27;51062;-49
2022/02/26 03:47:52;;;;;;;;;6.00;5.00;;;;;17.06;36.30;102885.56;5095678;27;50964;-51
2022/02/26 03:50:18;;;;;;;;;10.50;6.25;;;;;17.05;36.00;102881.09;5095385;27;51370;-51
2022/02/26 03:52:43;;;;;;;;;8.50;7.75;;;;;17.04;35.98;102877.50;5095463;27;51841;-49
2022/02/26 03:55:09;;;;;;;;;7.75;5.00;;;;;17.05;36.16;102884.69;5094201;27;51114;-52
2022/02/26 03:57:35;;;;;;;;;7.50;5.00;;;;;17.04;36.12;102877.50;5095809;27;51056;-49
2022/02/26 04:00:02;;;;;;;;;6.75;6.00;;;;;17.03;36.34;102878.53;5095954;27;51239;-52
2022/02/26 04:02:28;;;;;;;;;7.25;5.00;;;;;17.05;36.36;102886.56;5095329;27;52057;-49
2022/02/26 04:04:54;;;;;;;;;8.25;6.25;;;;;17.03;36.24;102886.72;5095470;27;51472;-48
2022/02/26 04:07:19;;;;;;;;;10.75;6.50;;;;;17.04;36.33;102899.41;5095595;27;51055;-52
2022/02/26 04:09:45;;;;;;;;;7.00;5.00;;;;;17.03;36.32;102897.69;5096853;27;51271;-52
2022/02/26 04:12:10;;;;;;;;;5.25;5.00;;;;;17.05;36.39;102889.31;5098688;27;51037;-51
2022/02/26 04:14:36;;;;;;;;;7.75;5.00;;;;;17.02;36.12;102888.59;5098896;27;51020;-50
2022/02/26 04:17:01;;;;;;;;;5.25;4.50;;;;;17.02;36.38;102890.50;5099024;27;51045;-49
2022/02/26 04:19:27;;;;;;;;;5.00;5.00;;;;;17.01;36.46;102897.84;5098844;27;51041;-52
2022/02/26 04:21:52;;;;;;;;;5.50;5.50;;;;;17.02;36.24;102901.44;5098468;27;50980;-51
2022/02/26 04:24:17;;;;;;;;;7.50;6.00;;;;;17.01;36.44;102907.94;5098910;27;51036;-49
2022/02/26 04:26:44;;;;;;;;;5.00;5.00;;;;;17.01;36.00;102911.53;5098705;27;50886;-50
2022/02/26 04:29:11;;;;;;;;;4.75;4.75;;;;;17.02;36.42;102909.66;5092512;27;51197;-51
2022/02/26 04:31:37;;;;;;;;;5.00;4.25;;;;;17.01;36.16;102910.66;5077840;27;51885;-53
2022/02/26 04:34:02;;;;;;;;;5.75;5.75;;;;;17.01;36.37;102907.94;5078124;27;51069;-52
2022/02/26 04:36:27;;;;;;;;;4.25;4.25;;;;;17.00;36.10;102908.94;5078055;28;50993;-52
2022/02/26 04:38:53;;;;;;;;;4.50;4.00;;;;;17.01;36.19;102916.16;5078454;27;51240;-49
2022/02/26 04:41:18;;;;;;;;;6.75;5.50;;;;;17.00;36.23;102922.63;5078026;27;51272;-49
2022/02/26 04:43:44;;;;;;;;;7.50;5.75;;;;;16.99;36.43;102918.19;5078169;27;51039;-52
2022/02/26 04:46:10;;;;;;;;;7.50;7.50;;;;;16.99;36.49;102912.69;5078121;27;51172;-52
2022/02/26 04:48:36;;;;;;;;;6.75;5.00;;;;;16.99;36.29;102910.81;5078137;27;51165;-53
2022/02/26 04:51:03;;;;;;;;;6.50;4.25;;;;;16.98;36.01;102922.75;5077707;28;50989;-50
2022/02/26 04:53:28;;;;;;;;;5.25;4.00;;;;;16.97;36.18;102915.56;5078178;27;51323;-53
2022/02/26 04:55:53;;;;;;;;;5.25;4.75;;;;;16.99;36.30;102912.69;5077948;27;51555;-51
2022/02/26 04:58:19;;;;;;;;;7.00;5.00;;;;;16.99;36.17;102910.81;5078161;27;51245;-49
2022/02/26 05:00:45;;;;;;;;;6.25;5.00;;;;;16.98;36.12;102913.69;5077503;27;51007;-52
2022/02/26 05:03:10;;;;;;;;;7.50;4.75;;;;;16.98;36.27;102910.94;5077721;27;51013;-52
2022/02/26 05:05:36;;;;;;;;;5.75;4.25;;;;;16.98;36.24;102910.94;5077808;27;51219;-54
2022/02/26 05:08:01;;;;;;;;;4.75;4.25;;;;;16.98;36.22;102900.00;5078216;27;52036;-52
2022/02/26 05:10:26;;;;;;;;;5.00;4.00;;;;;16.98;36.05;102900.00;5077494;28;51079;-52
2022/02/26 05:12:52;;;;;;;;;4.25;4.25;;;;;16.98;36.44;102905.47;5077632;27;50955;-49
2022/02/26 05:15:19;;;;;;;;;4.67;4.67;;;;;16.97;36.41;102904.59;5077740;27;51093;-52
2022/02/26 05:17:45;;;;;;;;;6.50;5.00;;;;;16.97;36.02;102896.41;5077725;27;51266;-48
2022/02/26 05:20:12;;;;;;;;;4.75;3.50;;;;;16.97;36.22;102906.47;5076887;27;51866;-53
2022/02/26 05:22:38;;;;;;;;;4.00;4.00;;;;;16.97;36.11;102914.69;5077380;27;50992;-53
2022/02/26 05:25:06;;;;;;;;;6.75;4.00;;;;;16.96;36.35;102902.88;5077319;27;51148;-52
2022/02/26 05:27:31;;;;;;;;;6.25;5.00;;;;;16.96;36.53;102902.03;5077665;28;51155;-52
2022/02/26 05:29:57;;;;;;;;;5.00;4.00;;;;;16.96;36.34;102902.03;5089965;27;52168;-51
2022/02/26 05:32:23;;;;;;;;;4.25;3.75;;;;;16.96;36.27;102907.50;5097588;27;51397;-53
2022/02/26 05:34:51;;;;;;;;;5.00;5.00;;;;;16.95;36.35;102900.31;5097583;27;51145;-52
2022/02/26 05:37:18;;;;;;;;;5.00;5.00;;;;;16.94;35.93;102896.69;5097608;27;51136;-52
2022/02/26 05:39:43;;;;;;;;;6.00;5.50;;;;;16.95;36.09;102903.03;5097363;27;51957;-50
2022/02/26 05:42:08;;;;;;;;;4.50;4.50;;;;;16.94;36.03;102907.66;5097567;27;51011;-53
2022/02/26 05:44:34;;;;;;;;;9.50;5.00;;;;;16.94;36.24;102904.06;5097647;27;51149;-50
2022/02/26 05:46:59;;;;;;;;;5.75;5.00;;;;;16.95;36.06;102900.31;5097634;27;51255;-47
2022/02/26 05:49:24;;;;;;;;;6.50;5.25;;;;;16.94;35.98;102907.66;5095760;27;52708;-52
2022/02/26 05:51:50;;;;;;;;;4.50;4.50;;;;;16.94;36.24;102906.78;5097214;27;51049;-50
2022/02/26 05:54:15;;;;;;;;;4.00;3.00;;;;;16.94;36.32;102907.66;5097736;27;51142;-50
2022/02/26 05:56:40;;;;;;;;;6.25;5.00;;;;;16.94;36.33;102909.53;5097759;27;51271;-51
2022/02/26 05:59:06;;;;;;;;;2.00;2.00;;;;;16.94;36.25;102912.28;5097247;27;51811;-53
2022/02/26 06:01:31;;;;;;;;;5.25;4.25;;;;;16.93;36.18;102905.94;5096966;27;50974;-51
2022/02/26 06:03:56;;;;;;;;;5.25;5.00;;;;;16.93;36.15;102903.19;5097340;27;50977;-51
2022/02/26 06:06:22;;;;;;;;;4.50;4.50;;;;;16.92;36.42;102906.09;5097573;27;51178;-52
2022/02/26 06:08:47;;;;;;;;;6.00;6.00;;;;;16.92;36.09;102908.81;5095809;27;51735;-51
2022/02/26 06:11:12;;;;;;;;;4.50;4.00;;;;;16.92;36.08;102917.03;5096970;27;50961;-52
2022/02/26 06:13:38;;;;;;;;;7.00;4.50;;;;;16.92;36.50;102917.03;5097236;27;51021;-51
2022/02/26 06:16:04;;;;;;;;;5.00;5.00;;;;;16.92;36.11;102922.50;5097265;27;51059;-52
2022/02/26 06:18:29;;;;;;;;;5.00;4.50;;;;;16.91;36.17;102918.06;5096702;27;51622;-53
2022/02/26 06:20:55;;;;;;;;;5.25;4.50;;;;;16.91;36.00;102929.88;5096793;27;51162;-54
2022/02/26 06:23:20;;;;;;;;;5.00;5.00;;;;;16.90;36.11;102921.81;5097439;27;51208;-53
2022/02/26 06:25:45;;;;;;;;;5.25;5.25;;;;;16.90;36.18;102925.41;5096910;27;51054;-51
2022/02/26 06:28:12;;;;;;;;;6.00;5.75;;;;;16.89;36.15;102928.28;5096587;27;51928;-48
2022/02/26 06:30:38;;;;;;;;;7.50;5.00;;;;;16.89;36.52;102923.69;5078130;27;50987;-51
2022/02/26 06:33:03;;;;;;;;;6.50;4.50;;;;;16.90;36.51;102924.53;5073809;28;50977;-53
2022/02/26 06:35:28;;;;;;;;;7.75;7.25;;;;;16.89;36.14;102917.34;5076720;27;51685;-51
2022/02/26 06:37:54;;;;;;;;;5.25;4.25;;;;;16.90;36.42;102924.53;5076140;27;52074;-53
2022/02/26 06:40:19;;;;;;;;;6.25;4.25;;;;;16.88;36.38;102923.81;5076354;27;51004;-51
2022/02/26 06:42:45;;;;;;;;;5.75;5.75;;;;;16.89;36.41;102917.34;5076430;27;51342;-53
2022/02/26 06:45:10;;;;;;;;;7.00;5.75;;;;;16.89;36.21;102925.56;5076456;27;51278;-53
2022/02/26 06:47:36;;;;;;;;;6.25;5.50;;;;;16.88;35.96;102927.44;5076194;27;51955;-53
2022/02/26 06:50:01;;;;;;;;;5.50;3.25;;;;;16.88;35.90;102932.91;5075940;27;51127;-50
2022/02/26 06:52:28;;;;;;;;;4.75;4.75;;;;;16.87;35.95;102933.03;5076006;27;51087;-53
2022/02/26 06:54:54;;;;;;;;;6.00;5.00;;;;;16.87;36.00;102931.16;5076500;27;51239;-55
2022/02/26 06:57:19;;;;;;;;;6.00;3.00;;;;;16.89;36.00;102931.03;5075936;28;52035;-50
2022/02/26 06:59:45;;;;;;;;;4.50;4.50;;;;;16.87;36.20;102924.81;5076109;27;51184;-53
2022/02/26 07:02:10;;;;;;;;;5.00;4.25;;;;;16.86;36.13;102926.69;5075983;27;51304;-51
2022/02/26 07:04:35;;;;;;;;;6.25;2.75;;;;;16.87;35.95;102922.94;5076136;27;51016;-48
2022/02/26 07:07:00;;;;;;;;;4.75;3.50;;;;;16.87;35.88;102927.56;5075817;27;51041;-52
2022/02/26 07:09:27;;;;;;;;;4.25;3.50;;;;;16.87;36.38;102927.56;5076127;27;50983;-53
2022/02/26 07:11:52;;;;;;;;;3.75;3.75;;;;;16.86;35.97;102929.44;5075802;27;51043;-51
2022/02/26 07:14:17;;;;;;;;;3.50;3.00;;;;;16.86;35.96;102940.38;5075945;27;51346;-47
2022/02/26 07:16:43;;;;;;;;;4.50;3.00;;;;;16.87;35.91;102933.03;5075651;27;51703;-49
2022/02/26 07:19:09;;;;;;;;;5.00;3.00;;;;;16.87;36.13;102938.50;5075571;27;51156;-51
2022/02/26 07:21:36;;;;;;;;;4.25;3.75;;;;;16.86;36.24;102937.63;5075695;28;50969;-50
2022/02/26 07:24:02;;;;;;;;;3.00;3.00;;;;;16.86;36.03;102934.91;5076179;27;50990;-50
2022/02/26 07:26:29;;;;;;;;;4.75;4.00;;;;;16.86;36.06;102939.50;5073876;28;52628;-52
2022/02/26 07:28:55;;;;;;;;;5.75;3.75;;;;;16.87;36.24;102941.25;5079930;27;51137;-53
2022/02/26 07:31:21;;;;;;;;;4.50;2.00;;;;;16.86;36.08;102940.38;5095792;27;51155;-52
2022/02/26 07:33:47;;;;;;;;;4.50;2.25;;;;;16.86;35.93;102939.50;5096302;27;50926;-52
2022/02/26 07:36:12;;;;;;;;;4.50;4.00;;;;;16.86;35.85;102942.25;5095739;27;51687;-53
2022/02/26 07:38:38;;;;;;;;;6.00;5.00;;;;;16.86;36.07;102934.03;5095955;27;51260;-51
2022/02/26 07:41:06;;;;;;;;;3.50;3.00;;;;;16.86;36.47;102942.25;5094648;27;51279;-49
2022/02/26 07:43:32;;;;;;;;;3.50;3.50;;;;;16.85;36.30;102944.13;5096752;27;51182;-49
2022/02/26 07:45:58;;;;;;;;;6.50;3.75;;;;;16.85;36.04;102937.78;5099379;27;52730;-50
2022/02/26 07:48:23;;;;;;;;;5.00;4.75;;;;;16.85;36.33;102951.47;5099326;27;51093;-52
2022/02/26 07:50:49;;;;;;;;;5.75;5.75;;;;;16.85;35.89;102946.88;5098982;27;51278;-53
2022/02/26 07:53:14;;;;;;;;;4.00;4.00;;;;;16.84;36.11;102933.34;5099848;27;51081;-52
2022/02/26 07:55:40;;;;;;;;;3.00;3.00;;;;;16.85;36.28;102940.53;5098994;27;51664;-51
2022/02/26 07:58:06;;;;;;;;;4.00;4.00;;;;;16.84;36.07;102939.66;5099308;27;51079;-51
2022/02/26 08:00:32;;;;;;;;;3.00;3.00;;;;;16.83;35.86;102943.41;5099011;27;51007;-52
2022/02/26 08:02:57;;;;;;;;;4.75;3.25;;;;;16.84;36.35;102944.28;5098943;27;50956;-50
2022/02/26 08:05:24;;;;;;;;;5.25;3.50;;;;;16.85;35.82;102954.22;5098716;27;51044;-53
2022/02/26 08:07:49;;;;;;;;;3.75;3.75;;;;;16.85;36.38;102951.47;5098827;27;51026;-51
2022/02/26 08:10:15;;;;;;;;;7.25;5.00;;;;;16.84;36.21;102950.63;5098962;27;51206;-51
2022/02/26 08:12:42;;;;;;;;;5.00;5.00;;;;;16.83;36.24;102950.78;5098927;27;50954;-53
2022/02/26 08:15:08;;;;;;;;;5.50;4.25;;;;;16.84;36.42;102952.50;5098776;27;51109;-48
2022/02/26 08:17:33;;;;;;;;;6.50;4.50;;;;;16.83;36.15;102948.91;5098878;27;51065;-52
2022/02/26 08:19:59;;;;;;;;;5.25;3.75;;;;;16.84;35.90;102952.50;5098691;27;51054;-49
2022/02/26 08:22:24;;;;;;;;;4.50;4.50;;;;;16.84;36.12;102947.88;5099024;27;51278;-53
2022/02/26 08:24:50;;;;;;;;;6.75;4.50;;;;;16.84;36.06;102953.34;5098521;27;51822;-53
2022/02/26 08:27:15;;;;;;;;;4.25;3.25;;;;;16.84;35.83;102950.63;5098581;27;50985;-50
2022/02/26 08:29:41;;;;;;;;;7.25;6.00;;;;;16.84;36.08;102952.50;5088291;27;51715;-53
2022/02/26 08:32:07;;;;;;;;;7.00;6.00;;;;;16.83;35.88;102945.28;5078252;27;51010;-52
2022/02/26 08:34:33;;;;;;;;;5.75;5.75;;;;;16.84;36.06;102949.75;5077798;27;53177;-52
2022/02/26 08:36:58;;;;;;;;;7.25;7.00;;;;;16.84;36.00;102947.03;5078019;27;51035;-47
2022/02/26 08:39:29;;;;;;;;;6.00;6.00;;;;;16.83;35.94;102945.28;5078351;27;51156;-54
2022/02/26 08:41:55;;;;;;;;;4.25;4.25;;;;;16.83;36.18;102954.38;5078161;27;51028;-50
2022/02/26 08:44:20;;;;;;;;;4.00;3.25;;;;;16.82;35.98;102949.91;5077982;27;51819;-52
2022/02/26 08:46:46;;;;;;;;;6.25;6.25;;;;;16.83;35.86;102950.78;5077767;27;51090;-53
2022/02/26 08:49:11;;;;;;;;;4.25;3.50;;;;;16.84;36.33;102952.50;5077630;27;50919;-51
2022/02/26 08:51:36;;;;;;;;;5.50;4.00;;;;;16.83;35.96;102948.91;5076617;28;50996;-54
2022/02/26 08:54:02;;;;;;;;;6.25;6.25;;;;;16.83;36.02;102946.16;5077742;27;51738;-53
2022/02/26 08:56:27;;;;;;;;;5.00;5.00;;;;;16.83;36.07;102946.16;5076739;27;51121;-51
2022/02/26 08:58:54;;;;;;;;;9.50;6.25;;;;;16.84;36.02;102947.03;5078141;28;51199;-50
2022/02/26 09:01:19;;;;;;;;;5.00;4.75;;;;;16.83;36.24;102951.63;5077847;27;50848;-50
2022/02/26 09:03:45;;;;;;;;;5.50;2.50;;;;;16.83;36.34;102939.81;5077162;28;52090;-51
2022/02/26 09:06:11;;;;;;;;;5.50;5.50;;;;;16.84;36.36;102947.03;5075710;28;51082;-53
2022/02/26 09:08:38;;;;;;;;;6.25;5.00;;;;;16.83;36.13;102951.63;5077805;27;51702;-51
2022/02/26 09:11:06;;;;;;;;;5.25;5.00;;;;;16.84;35.91;102955.22;5077781;28;51194;-53
2022/02/26 09:13:33;;;;;;;;;4.75;3.50;;;;;16.84;36.36;102947.03;5077226;27;52784;-49
2022/02/26 09:15:58;;;;;;;;;5.50;5.50;;;;;16.84;36.05;102938.81;5077744;28;51063;-52
2022/02/26 09:18:23;;;;;;;;;5.00;4.75;;;;;16.85;36.26;102937.78;5077185;28;51150;-52
2022/02/26 09:20:49;;;;;;;;;6.00;4.50;;;;;16.86;36.29;102950.47;5077352;27;51135;-53
2022/02/26 09:23:14;;;;;;;;;5.00;5.00;;;;;16.87;35.88;102952.19;5077002;27;50985;-53
2022/02/26 09:25:39;;;;;;;;;5.50;5.00;;;;;16.89;35.94;102945.56;5077374;27;50924;-53
2022/02/26 09:28:05;;;;;;;;;7.50;5.00;;;;;16.93;36.24;102946.13;5077585;27;51014;-52
2022/02/26 09:30:30;;;;;;;;;4.25;4.25;;;;;16.94;36.05;102932.28;5094612;27;51199;-52
2022/02/26 09:32:56;;;;;;;;;5.50;5.25;;;;;16.98;36.02;102928.22;5097009;27;52014;-52
2022/02/26 09:35:22;;;;;;;;;4.50;4.50;;;;;17.01;36.00;102927.09;5097406;27;51124;-53
2022/02/26 09:37:48;;;;;;;;;7.25;7.00;;;;;17.05;36.13;102933.13;5097562;27;51186;-51
2022/02/26 09:40:13;;;;;;;;;8.25;6.00;;;;;17.08;36.17;102927.34;5097635;27;51183;-53
2022/02/26 09:42:39;;;;;;;;;6.25;5.50;;;;;17.12;35.85;102928.78;5097218;27;51973;-53
2022/02/26 09:45:05;;;;;;;;;6.75;4.75;;;;;17.14;35.80;102924.88;5097427;27;50994;-53
2022/02/26 09:47:31;;;;;;;;;5.00;4.25;;;;;17.17;36.11;102920.97;5097028;27;51287;-51
2022/02/26 09:49:56;;;;;;;;;6.75;6.75;;;;;17.22;35.84;102919.53;5096922;27;51318;-54
2022/02/26 09:52:26;;;;;;;;;7.00;5.50;;;;;17.24;35.97;102925.72;5096763;27;51134;-51
2022/02/26 09:54:51;;;;;;;;;7.25;7.00;;;;;17.27;35.76;102922.66;5097121;27;51324;-57
2022/02/26 09:57:18;;;;;;;;;9.75;7.00;;;;;17.29;35.77;102920.63;5095849;27;51443;-53
2022/02/26 09:59:46;;;;;;;;;6.75;6.75;;;;;17.33;35.64;102917.59;5097667;27;51282;-51
2022/02/26 10:02:11;;;;;;;;;11.50;6.50;;;;;17.36;35.57;102925.50;5096630;27;51718;-49
2022/02/26 10:04:51;;;;;;;;;6.50;4.75;;;;;17.39;35.62;102916.97;5096750;27;50971;-52
2022/02/26 10:07:17;;;;;;;;;8.50;5.75;;;;;17.42;35.64;102922.19;5097049;27;51070;-53
2022/02/26 10:09:45;;;;;;;;;7.00;5.25;;;;;17.45;35.40;102911.75;5097053;27;51025;-52
2022/02/26 10:12:20;;;;;;;;;7.00;5.25;;;;;17.47;35.55;102907.00;5096414;27;51825;-51
2022/02/26 10:14:47;;;;;;;;;5.25;5.25;;;;;17.50;35.52;102914.03;5096607;27;51113;-52
2022/02/26 10:17:24;;;;;;;;;8.00;5.50;;;;;17.54;35.71;102913.59;5096791;27;51119;-50
2022/02/26 10:20:00;;;;;;;;;5.00;4.50;;;;;17.57;35.43;102902.31;5096280;27;51340;-49
2022/02/26 10:22:31;;;;;;;;;6.00;6.00;;;;;17.62;35.23;102904.63;5096621;27;51812;-52
2022/02/26 10:25:13;;;;;;;;;5.75;5.50;;;;;17.64;35.10;102905.31;5096462;27;51705;-50
2022/02/26 10:27:47;;;;;;;;;7.00;5.75;;;;;17.67;35.34;102905.00;5096542;27;51198;-53
2022/02/26 10:30:21;;;;;;;;;8.25;5.75;;;;;17.70;35.31;102901.97;5081384;27;51053;-53
2022/02/26 10:33:10;;;;;;;;;0.25;0.00;;;;;17.72;35.32;102899.97;5075475;27;51732;-48
2022/02/26 10:35:40;;;;;;;;;4.00;4.00;;;;;17.75;35.35;102904.28;5075726;27;51406;-47
2022/02/26 10:38:15;;;;;;;;;4.25;4.25;;;;;17.76;35.11;102890.41;5075753;27;51166;-51
2022/02/26 10:40:57;;;;;;;;;5.00;4.00;;;;;17.80;35.28;102891.81;5075840;27;51119;-51
2022/02/26 10:43:55;;;;;;;;;5.25;3.50;;;;;17.82;34.92;102895.28;5075816;27;50992;-47
2022/02/26 10:46:30;;;;;;;;;5.25;4.00;;;;;17.84;34.95;102884.16;5076078;27;51316;-52
2022/02/26 10:49:06;;;;;;;;;6.50;4.75;;;;;17.85;34.83;102892.22;5075611;27;51016;-47
2022/02/26 10:51:34;;;;;;;;;3.00;3.00;;;;;17.89;34.79;102893.63;5075534;27;51128;-50
2022/02/26 10:54:03;;;;;;;;;5.25;4.00;;;;;17.89;34.65;102885.38;5075483;27;51895;-50
2022/02/26 10:56:40;;;;;;;;;4.00;3.25;;;;;17.92;35.04;102878.72;5075347;27;51091;-53
2022/02/26 10:59:07;;;;;;;;;5.75;3.75;;;;;17.94;34.70;102886.81;5075314;27;51178;-49
2022/02/26 11:01:34;;;;;;;;;3.75;2.00;;;;;17.95;34.48;102877.56;5075620;27;51301;-51
2022/02/26 11:04:03;;;;;;;;;4.00;4.00;;;;;17.97;34.80;102875.53;5074688;27;51060;-49
2022/02/26 11:06:30;;;;;;;;;2.50;2.50;;;;;17.98;34.74;102869.03;5074987;27;51036;-49
2022/02/26 11:08:55;;;;;;;;;2.75;2.75;;;;;17.99;34.43;102865.25;5075672;27;51169;-50
2022/02/26 11:11:25;;;;;;;;;4.75;4.75;;;;;17.99;34.56;102868.88;5075538;27;51311;-51
2022/02/26 11:13:53;;;;;;;;;4.25;2.00;;;;;18.00;34.52;102864.25;5075508;27;52348;-52
2022/02/26 11:16:20;;;;;;;;;5.50;3.25;;;;;18.00;34.40;102861.50;5075345;27;51378;-53
2022/02/26 11:18:51;;;;;;;;;4.00;3.25;;;;;18.00;34.73;102865.09;5076554;27;51071;-50
2022/02/26 11:21:18;;;;;;;;;5.00;2.50;;;;;18.00;34.74;102862.34;5078682;27;51082;-49